sensor_id;sensor_type;location;lat;lon;timestamp;pressure;altitude;pressure_sealevel;temperature;humidity
56912;BME280;42800;53.928;27.662;2023-07-16T00:01:31;98550.44;;;16.64;100.00
56912;BME280;42800;53.928;27.662;2023-07-16T00:03:57;98545.75;;;16.61;100.00
56912;BME280;42800;53.928;27.662;2023-07-16T00:06:23;98538.59;;;16.64;100.00
56912;BME280;42800;53.928;27.662;2023-07-16T00:08:50;98525.28;;;16.55;100.00
56912;BME280;42800;53.928;27.662;2023-07-16T00:11:16;98529.66;;;16.56;100.00
56912;BME280;42800;53.928;27.662;2023-07-16T00:13:42;98529.69;;;16.53;100.00
56912;BME280;42800;53.928;27.662;2023-07-16T00:16:12;98534.44;;;16.52;100.00
56912;BME280;42800;53.928;27.662;2023-07-16T00:18:38;98536.84;;;16.50;100.00
56912;BME280;42800;53.928;27.662;2023-07-16T00:21:04;98521.09;;;16.47;100.00
56912;BME280;42800;53.928;27.662;2023-07-16T00:23:30;98484.22;;;16.30;100.00
56912;BME280;42800;53.928;27.662;2023-07-16T00:25:57;98468.34;;;16.34;100.00
56912;BME280;42800;53.928;27.662;2023-07-16T00:28:23;98475.16;;;16.30;100.00
56912;BME280;42800;53.928;27.662;2023-07-16T00:30:49;98467.19;;;16.32;100.00
56912;BME280;42800;53.928;27.662;2023-07-16T00:33:15;98455.47;;;16.24;100.00
56912;BME280;42800;53.928;27.662;2023-07-16T00:35:47;98445.31;;;16.17;100.00
56912;BME280;42800;53.928;27.662;2023-07-16T00:38:13;98425.59;;;16.15;100.00
56912;BME280;42800;53.928;27.662;2023-07-16T00:40:39;98433.53;;;16.13;100.00
56912;BME280;42800;53.928;27.662;2023-07-16T00:43:06;98424.88;;;16.11;100.00
56912;BME280;42800;53.928;27.662;2023-07-16T00:45:32;98415.91;;;16.04;100.00
56912;BME280;42800;53.928;27.662;2023-07-16T00:47:58;98403.28;;;16.03;100.00
56912;BME280;42800;53.928;27.662;2023-07-16T00:50:25;98402.94;;;16.00;100.00
56912;BME280;42800;53.928;27.662;2023-07-16T00:52:51;98396.31;;;15.94;100.00
56912;BME280;42800;53.928;27.662;2023-07-16T00:55:17;98393.97;;;15.93;100.00
56912;BME280;42800;53.928;27.662;2023-07-16T00:57:45;98390.34;;;15.96;100.00
56912;BME280;42800;53.928;27.662;2023-07-16T01:00:12;98388.91;;;15.88;100.00
56912;BME280;42800;53.928;27.662;2023-07-16T01:02:39;98396.88;;;15.82;100.00
56912;BME280;42800;53.928;27.662;2023-07-16T01:05:05;98389.44;;;15.79;100.00
56912;BME280;42800;53.928;27.662;2023-07-16T01:07:32;98382.28;;;15.82;100.00
56912;BME280;42800;53.928;27.662;2023-07-16T01:09:59;98371.25;;;15.82;100.00
56912;BME280;42800;53.928;27.662;2023-07-16T01:12:27;98355.91;;;15.77;100.00
56912;BME280;42800;53.928;27.662;2023-07-16T01:14:54;98359.16;;;15.72;100.00
56912;BME280;42800;53.928;27.662;2023-07-16T01:17:22;98341.50;;;15.62;100.00
56912;BME280;42800;53.928;27.662;2023-07-16T01:19:49;98347.03;;;15.62;100.00
56912;BME280;42800;53.928;27.662;2023-07-16T01:22:34;98334.03;;;15.63;100.00
56912;BME280;42800;53.928;27.662;2023-07-16T01:25:10;98338.47;;;15.57;100.00
56912;BME280;42800;53.928;27.662;2023-07-16T01:27:53;98326.97;;;15.58;100.00
56912;BME280;42800;53.928;27.662;2023-07-16T01:30:26;98315.22;;;15.54;100.00
56912;BME280;42800;53.928;27.662;2023-07-16T01:32:53;98317.59;;;15.52;100.00
56912;BME280;42800;53.928;27.662;2023-07-16T01:35:21;98321.63;;;15.47;100.00
56912;BME280;42800;53.928;27.662;2023-07-16T01:37:47;98317.72;;;15.45;100.00
56912;BME280;42800;53.928;27.662;2023-07-16T01:40:14;98312.63;;;15.43;100.00
56912;BME280;42800;53.928;27.662;2023-07-16T01:42:40;98315.00;;;15.41;100.00
56912;BME280;42800;53.928;27.662;2023-07-16T01:45:06;98313.38;;;15.44;100.00
56912;BME280;42800;53.928;27.662;2023-07-16T01:47:40;98305.56;;;15.39;100.00
56912;BME280;42800;53.928;27.662;2023-07-16T01:50:10;98298.13;;;15.36;100.00
56912;BME280;42800;53.928;27.662;2023-07-16T01:52:36;98296.94;;;15.37;100.00
56912;BME280;42800;53.928;27.662;2023-07-16T01:55:03;98290.25;;;15.34;100.00
56912;BME280;42800;53.928;27.662;2023-07-16T01:57:29;98300.16;;;15.32;100.00
56912;BME280;42800;53.928;27.662;2023-07-16T01:59:55;98285.13;;;15.33;100.00
56912;BME280;42800;53.928;27.662;2023-07-16T02:02:21;98290.25;;;15.34;100.00
56912;BME280;42800;53.928;27.662;2023-07-16T02:04:47;98287.97;;;15.29;100.00
56912;BME280;42800;53.928;27.662;2023-07-16T02:07:13;98278.22;;;15.21;100.00
56912;BME280;42800;53.928;27.662;2023-07-16T02:09:39;98280.22;;;15.20;100.00
56912;BME280;42800;53.928;27.662;2023-07-16T02:12:06;98278.59;;;15.23;100.00
56912;BME280;42800;53.928;27.662;2023-07-16T02:14:32;98275.53;;;15.17;100.00
56912;BME280;42800;53.928;27.662;2023-07-16T02:16:58;98275.94;;;15.16;100.00
56912;BME280;42800;53.928;27.662;2023-07-16T02:19:24;98273.91;;;15.20;100.00
56912;BME280;42800;53.928;27.662;2023-07-16T02:21:51;98274.31;;;15.18;100.00
56912;BME280;42800;53.928;27.662;2023-07-16T02:24:17;98273.50;;;15.21;100.00
56912;BME280;42800;53.928;27.662;2023-07-16T02:26:43;98279.38;;;15.23;100.00
56912;BME280;42800;53.928;27.662;2023-07-16T02:29:09;98278.13;;;15.28;100.00
56912;BME280;42800;53.928;27.662;2023-07-16T02:31:35;98288.78;;;15.26;100.00
56912;BME280;42800;53.928;27.662;2023-07-16T02:34:01;98289.44;;;15.37;100.00
56912;BME280;42800;53.928;27.662;2023-07-16T02:36:27;98281.09;;;15.41;100.00
56912;BME280;42800;53.928;27.662;2023-07-16T02:38:54;98286.91;;;15.46;100.00
56912;BME280;42800;53.928;27.662;2023-07-16T02:41:20;98291.00;;;15.62;100.00
56912;BME280;42800;53.928;27.662;2023-07-16T02:43:46;98307.25;;;16.07;100.00
56912;BME280;42800;53.928;27.662;2023-07-16T02:46:12;98366.75;;;16.58;100.00
56912;BME280;42800;53.928;27.662;2023-07-16T02:48:38;98429.75;;;16.94;100.00
56912;BME280;42800;53.928;27.662;2023-07-16T02:51:03;98511.41;;;17.26;100.00
56912;BME280;42800;53.928;27.662;2023-07-16T02:53:29;98554.97;;;17.65;100.00
56912;BME280;42800;53.928;27.662;2023-07-16T02:55:56;98610.78;;;17.87;100.00
56912;BME280;42800;53.928;27.662;2023-07-16T02:58:22;98651.53;;;18.10;100.00
56912;BME280;42800;53.928;27.662;2023-07-16T03:00:48;98684.81;;;18.30;100.00
56912;BME280;42800;53.928;27.662;2023-07-16T03:03:14;98704.81;;;18.57;100.00
56912;BME280;42800;53.928;27.662;2023-07-16T03:05:39;98753.69;;;18.71;100.00
56912;BME280;42800;53.928;27.662;2023-07-16T03:08:05;98755.88;;;19.00;100.00
56912;BME280;42800;53.928;27.662;2023-07-16T03:10:31;98796.28;;;19.21;100.00
56912;BME280;42800;53.928;27.662;2023-07-16T03:12:58;98833.13;;;19.41;100.00
56912;BME280;42800;53.928;27.662;2023-07-16T03:15:24;98816.47;;;19.58;100.00
56912;BME280;42800;53.928;27.662;2023-07-16T03:17:50;98840.38;;;19.71;100.00
56912;BME280;42800;53.928;27.662;2023-07-16T03:20:16;98852.09;;;19.95;100.00
56912;BME280;42800;53.928;27.662;2023-07-16T03:22:42;98856.38;;;20.16;100.00
56912;BME280;42800;53.928;27.662;2023-07-16T03:25:08;98876.06;;;20.38;100.00
56912;BME280;42800;53.928;27.662;2023-07-16T03:27:34;98898.19;;;20.75;100.00
56912;BME280;42800;53.928;27.662;2023-07-16T03:30:01;98919.19;;;20.92;100.00
56912;BME280;42800;53.928;27.662;2023-07-16T03:32:26;98929.97;;;21.19;100.00
56912;BME280;42800;53.928;27.662;2023-07-16T03:34:52;98940.94;;;21.39;100.00
56912;BME280;42800;53.928;27.662;2023-07-16T03:37:18;98958.50;;;21.65;100.00
56912;BME280;42800;53.928;27.662;2023-07-16T03:39:44;98972.72;;;21.96;100.00
56912;BME280;42800;53.928;27.662;2023-07-16T03:42:10;98995.63;;;22.17;100.00
56912;BME280;42800;53.928;27.662;2023-07-16T03:44:36;98998.72;;;22.31;100.00
56912;BME280;42800;53.928;27.662;2023-07-16T03:47:03;99005.16;;;22.67;100.00
56912;BME280;42800;53.928;27.662;2023-07-16T03:49:29;99004.41;;;22.88;100.00
56912;BME280;42800;53.928;27.662;2023-07-16T03:51:55;99011.81;;;23.17;100.00
56912;BME280;42800;53.928;27.662;2023-07-16T03:54:21;99024.84;;;23.33;100.00
56912;BME280;42800;53.928;27.662;2023-07-16T03:56:47;99020.00;;;23.55;100.00
56912;BME280;42800;53.928;27.662;2023-07-16T03:59:13;99035.66;;;23.97;100.00
56912;BME280;42800;53.928;27.662;2023-07-16T04:01:38;99037.75;;;24.14;100.00
56912;BME280;42800;53.928;27.662;2023-07-16T04:04:05;99041.19;;;24.50;98.60
56912;BME280;42800;53.928;27.662;2023-07-16T04:06:31;99053.75;;;25.04;96.31
56912;BME280;42800;53.928;27.662;2023-07-16T04:08:57;99055.00;;;25.12;94.72
56912;BME280;42800;53.928;27.662;2023-07-16T04:11:23;99074.47;;;25.52;84.30
56912;BME280;42800;53.928;27.662;2023-07-16T04:13:49;99084.31;;;25.48;77.74
56912;BME280;42800;53.928;27.662;2023-07-16T04:16:15;99076.66;;;25.85;76.47
56912;BME280;42800;53.928;27.662;2023-07-16T04:18:40;99078.16;;;26.04;74.13
56912;BME280;42800;53.928;27.662;2023-07-16T04:21:07;99081.50;;;26.36;73.04
56912;BME280;42800;53.928;27.662;2023-07-16T04:23:33;99086.31;;;26.36;71.08
56912;BME280;42800;53.928;27.662;2023-07-16T04:25:59;99082.66;;;26.87;71.48
56912;BME280;42800;53.928;27.662;2023-07-16T04:28:25;99076.31;;;26.77;69.60
56912;BME280;42800;53.928;27.662;2023-07-16T04:30:51;99087.50;;;27.10;69.06
56912;BME280;42800;53.928;27.662;2023-07-16T04:33:16;99080.16;;;26.56;69.67
56912;BME280;42800;53.928;27.662;2023-07-16T04:35:44;99086.00;;;26.76;66.85
56912;BME280;42800;53.928;27.662;2023-07-16T04:38:11;99081.78;;;27.43;66.06
56912;BME280;42800;53.928;27.662;2023-07-16T04:40:36;99091.28;;;27.31;66.25
56912;BME280;42800;53.928;27.662;2023-07-16T04:43:02;99093.31;;;27.31;64.68
56912;BME280;42800;53.928;27.662;2023-07-16T04:45:28;99096.59;;;27.68;63.76
56912;BME280;42800;53.928;27.662;2023-07-16T04:47:54;99099.13;;;27.66;62.36
56912;BME280;42800;53.928;27.662;2023-07-16T04:50:20;99100.44;;;28.39;66.18
56912;BME280;42800;53.928;27.662;2023-07-16T04:52:46;99098.16;;;27.06;64.60
56912;BME280;42800;53.928;27.662;2023-07-16T04:55:12;99104.19;;;27.91;61.23
56912;BME280;42800;53.928;27.662;2023-07-16T04:57:39;99106.94;;;27.47;61.31
56912;BME280;42800;53.928;27.662;2023-07-16T05:00:06;99102.25;;;27.29;61.72
56912;BME280;42800;53.928;27.662;2023-07-16T05:02:33;99110.66;;;27.53;60.42
56912;BME280;42800;53.928;27.662;2023-07-16T05:04:59;99112.56;;;27.47;59.47
56912;BME280;42800;53.928;27.662;2023-07-16T05:07:25;99111.63;;;28.69;58.39
56912;BME280;42800;53.928;27.662;2023-07-16T05:09:51;99113.34;;;27.48;60.02
56912;BME280;42800;53.928;27.662;2023-07-16T05:12:17;99111.38;;;28.87;57.64
56912;BME280;42800;53.928;27.662;2023-07-16T05:14:44;99111.41;;;29.48;56.75
56912;BME280;42800;53.928;27.662;2023-07-16T05:17:10;99119.75;;;29.17;57.07
56912;BME280;42800;53.928;27.662;2023-07-16T05:19:36;99116.50;;;29.03;56.53
56912;BME280;42800;53.928;27.662;2023-07-16T05:22:02;99111.06;;;29.20;56.86
56912;BME280;42800;53.928;27.662;2023-07-16T05:24:28;99111.41;;;29.48;56.00
56912;BME280;42800;53.928;27.662;2023-07-16T05:26:54;99111.94;;;29.99;55.02
56912;BME280;42800;53.928;27.662;2023-07-16T05:29:20;99117.19;;;30.38;54.38
56912;BME280;42800;53.928;27.662;2023-07-16T05:31:46;99122.94;;;29.24;55.40
56912;BME280;42800;53.928;27.662;2023-07-16T05:34:12;99117.13;;;29.54;55.36
56912;BME280;42800;53.928;27.662;2023-07-16T05:36:39;99122.72;;;30.58;53.51
56912;BME280;42800;53.928;27.662;2023-07-16T05:39:05;99128.56;;;30.17;54.45
56912;BME280;42800;53.928;27.662;2023-07-16T05:41:33;99113.09;;;31.19;52.67
56912;BME280;42800;53.928;27.662;2023-07-16T05:43:59;99120.41;;;31.43;52.81
56912;BME280;42800;53.928;27.662;2023-07-16T05:46:26;99114.31;;;31.07;52.37
56912;BME280;42800;53.928;27.662;2023-07-16T05:48:52;99111.34;;;30.47;52.75
56912;BME280;42800;53.928;27.662;2023-07-16T05:51:18;99115.13;;;31.18;52.53
56912;BME280;42800;53.928;27.662;2023-07-16T05:53:44;99111.94;;;31.54;51.88
56912;BME280;42800;53.928;27.662;2023-07-16T05:56:10;99118.31;;;30.83;52.47
56912;BME280;42800;53.928;27.662;2023-07-16T05:58:36;99116.56;;;30.97;51.92
56912;BME280;42800;53.928;27.662;2023-07-16T06:01:02;99112.88;;;30.42;52.34
56912;BME280;42800;53.928;27.662;2023-07-16T06:03:28;99108.91;;;30.66;52.29
56912;BME280;42800;53.928;27.662;2023-07-16T06:05:54;99108.72;;;30.12;52.73
56912;BME280;42800;53.928;27.662;2023-07-16T06:08:20;99107.59;;;31.04;51.98
56912;BME280;42800;53.928;27.662;2023-07-16T06:10:46;99111.47;;;31.07;51.06
56912;BME280;42800;53.928;27.662;2023-07-16T06:13:12;99112.53;;;31.80;49.83
56912;BME280;42800;53.928;27.662;2023-07-16T06:15:38;99107.97;;;32.50;49.69
56912;BME280;42800;53.928;27.662;2023-07-16T06:18:03;99108.88;;;31.03;50.03
56912;BME280;42800;53.928;27.662;2023-07-16T06:20:30;99106.47;;;31.33;50.20
56912;BME280;42800;53.928;27.662;2023-07-16T06:22:56;99110.22;;;32.80;48.89
56912;BME280;42800;53.928;27.662;2023-07-16T06:25:22;99108.63;;;33.07;48.05
56912;BME280;42800;53.928;27.662;2023-07-16T06:27:48;99107.03;;;33.12;47.82
56912;BME280;42800;53.928;27.662;2023-07-16T06:30:14;99109.19;;;32.77;46.58
56912;BME280;42800;53.928;27.662;2023-07-16T06:32:40;99110.66;;;33.12;46.73
56912;BME280;42800;53.928;27.662;2023-07-16T06:35:06;99106.59;;;32.96;46.74
56912;BME280;42800;53.928;27.662;2023-07-16T06:37:33;99104.81;;;32.65;46.61
56912;BME280;42800;53.928;27.662;2023-07-16T06:39:59;99112.22;;;33.13;46.83
56912;BME280;42800;53.928;27.662;2023-07-16T06:42:25;99107.66;;;33.57;46.38
56912;BME280;42800;53.928;27.662;2023-07-16T06:44:51;99108.03;;;33.25;46.42
56912;BME280;42800;53.928;27.662;2023-07-16T06:47:16;99107.88;;;34.06;45.93
56912;BME280;42800;53.928;27.662;2023-07-16T06:49:42;99107.59;;;32.99;46.25
56912;BME280;42800;53.928;27.662;2023-07-16T06:52:18;99113.41;;;33.87;45.67
56912;BME280;42800;53.928;27.662;2023-07-16T06:54:45;99104.78;;;33.63;46.35
56912;BME280;42800;53.928;27.662;2023-07-16T06:57:10;99103.91;;;34.45;45.64
56912;BME280;42800;53.928;27.662;2023-07-16T06:59:36;99096.78;;;33.03;46.25
56912;BME280;42800;53.928;27.662;2023-07-16T07:02:02;99103.56;;;32.66;47.14
56912;BME280;42800;53.928;27.662;2023-07-16T07:04:28;99102.97;;;34.07;46.16
56912;BME280;42800;53.928;27.662;2023-07-16T07:06:54;99097.13;;;34.78;45.68
56912;BME280;42800;53.928;27.662;2023-07-16T07:09:20;99095.13;;;34.73;45.20
56912;BME280;42800;53.928;27.662;2023-07-16T07:11:47;99101.97;;;33.57;46.35
56912;BME280;42800;53.928;27.662;2023-07-16T07:14:13;99089.06;;;34.28;46.52
56912;BME280;42800;53.928;27.662;2023-07-16T07:16:39;99090.25;;;34.93;45.33
56912;BME280;42800;53.928;27.662;2023-07-16T07:19:05;99089.53;;;32.91;47.31
56912;BME280;42800;53.928;27.662;2023-07-16T07:21:31;99095.31;;;33.85;46.76
56912;BME280;42800;53.928;27.662;2023-07-16T07:23:57;99086.38;;;34.65;46.33
56912;BME280;42800;53.928;27.662;2023-07-16T07:26:23;99083.00;;;34.42;45.53
56912;BME280;42800;53.928;27.662;2023-07-16T07:28:49;99079.03;;;33.85;46.89
56912;BME280;42800;53.928;27.662;2023-07-16T07:31:15;99078.00;;;34.18;46.86
56912;BME280;42800;53.928;27.662;2023-07-16T07:33:42;99081.94;;;35.38;46.26
56912;BME280;42800;53.928;27.662;2023-07-16T07:36:08;99074.44;;;35.35;45.44
56912;BME280;42800;53.928;27.662;2023-07-16T07:38:34;99076.44;;;35.21;45.51
56912;BME280;42800;53.928;27.662;2023-07-16T07:41:00;99087.25;;;35.09;45.45
56912;BME280;42800;53.928;27.662;2023-07-16T07:43:27;99080.81;;;35.66;45.25
56912;BME280;42800;53.928;27.662;2023-07-16T07:45:53;99074.56;;;35.67;45.45
56912;BME280;42800;53.928;27.662;2023-07-16T07:48:19;99077.38;;;35.48;45.17
56912;BME280;42800;53.928;27.662;2023-07-16T07:50:46;99079.88;;;35.57;45.32
56912;BME280;42800;53.928;27.662;2023-07-16T07:53:12;99070.31;;;35.36;45.58
56912;BME280;42800;53.928;27.662;2023-07-16T07:55:40;99074.88;;;35.64;45.98
56912;BME280;42800;53.928;27.662;2023-07-16T07:58:07;99070.69;;;35.65;45.90
56912;BME280;42800;53.928;27.662;2023-07-16T08:00:32;99064.28;;;35.21;45.82
56912;BME280;42800;53.928;27.662;2023-07-16T08:02:59;99069.78;;;35.56;45.40
56912;BME280;42800;53.928;27.662;2023-07-16T08:05:25;99066.91;;;35.38;45.70
56912;BME280;42800;53.928;27.662;2023-07-16T08:07:51;99069.66;;;35.81;44.94
56912;BME280;42800;53.928;27.662;2023-07-16T08:10:17;99064.88;;;35.89;45.63
56912;BME280;42800;53.928;27.662;2023-07-16T08:12:43;99069.03;;;35.88;45.50
56912;BME280;42800;53.928;27.662;2023-07-16T08:15:10;99066.78;;;36.00;45.25
56912;BME280;42800;53.928;27.662;2023-07-16T08:17:39;99068.03;;;34.66;47.08
56912;BME280;42800;53.928;27.662;2023-07-16T08:20:07;99065.34;;;36.39;45.76
56912;BME280;42800;53.928;27.662;2023-07-16T08:22:33;99064.72;;;35.81;46.04
56912;BME280;42800;53.928;27.662;2023-07-16T08:24:59;99060.16;;;34.97;45.89
56912;BME280;42800;53.928;27.662;2023-07-16T08:27:25;99060.84;;;35.98;45.86
56912;BME280;42800;53.928;27.662;2023-07-16T08:29:51;99054.31;;;35.84;45.91
56912;BME280;42800;53.928;27.662;2023-07-16T08:32:18;99052.31;;;36.43;45.21
56912;BME280;42800;53.928;27.662;2023-07-16T08:34:44;99063.75;;;35.22;46.55
56912;BME280;42800;53.928;27.662;2023-07-16T08:37:10;99053.81;;;35.99;45.70
56912;BME280;42800;53.928;27.662;2023-07-16T08:39:36;99056.88;;;35.69;45.94
56912;BME280;42800;53.928;27.662;2023-07-16T08:42:03;99055.84;;;35.53;45.63
56912;BME280;42800;53.928;27.662;2023-07-16T08:44:30;99048.66;;;36.29;45.80
56912;BME280;42800;53.928;27.662;2023-07-16T08:46:56;99044.44;;;36.49;44.41
56912;BME280;42800;53.928;27.662;2023-07-16T08:49:23;99042.88;;;36.62;44.85
56912;BME280;42800;53.928;27.662;2023-07-16T08:51:49;99042.16;;;36.16;44.90
56912;BME280;42800;53.928;27.662;2023-07-16T08:54:16;99032.63;;;36.13;45.64
56912;BME280;42800;53.928;27.662;2023-07-16T08:56:43;99035.03;;;35.58;46.19
56912;BME280;42800;53.928;27.662;2023-07-16T08:59:09;99044.19;;;35.13;45.98
56912;BME280;42800;53.928;27.662;2023-07-16T09:01:36;99039.13;;;35.63;45.14
56912;BME280;42800;53.928;27.662;2023-07-16T09:04:02;99040.09;;;34.35;46.22
56912;BME280;42800;53.928;27.662;2023-07-16T09:06:29;99041.63;;;35.47;46.23
56912;BME280;42800;53.928;27.662;2023-07-16T09:08:55;99036.53;;;35.78;46.63
56912;BME280;42800;53.928;27.662;2023-07-16T09:11:22;99044.13;;;36.08;45.66
56912;BME280;42800;53.928;27.662;2023-07-16T09:13:48;99029.53;;;35.92;45.62
56912;BME280;42800;53.928;27.662;2023-07-16T09:16:14;99029.63;;;35.54;45.39
56912;BME280;42800;53.928;27.662;2023-07-16T09:18:43;99038.38;;;35.75;45.46
56912;BME280;42800;53.928;27.662;2023-07-16T09:21:09;99029.19;;;34.88;45.88
56912;BME280;42800;53.928;27.662;2023-07-16T09:23:35;99027.75;;;35.00;46.38
56912;BME280;42800;53.928;27.662;2023-07-16T09:26:02;99019.16;;;35.63;46.67
56912;BME280;42800;53.928;27.662;2023-07-16T09:28:31;99031.28;;;33.37;47.70
56912;BME280;42800;53.928;27.662;2023-07-16T09:31:03;99023.19;;;34.73;47.04
56912;BME280;42800;53.928;27.662;2023-07-16T09:33:31;99017.28;;;34.16;46.76
56912;BME280;42800;53.928;27.662;2023-07-16T09:35:57;99018.59;;;34.39;47.27
56912;BME280;42800;53.928;27.662;2023-07-16T09:38:23;99011.13;;;35.42;46.77
56912;BME280;42800;53.928;27.662;2023-07-16T09:40:51;99010.25;;;35.53;45.30
56912;BME280;42800;53.928;27.662;2023-07-16T09:43:17;99016.53;;;35.97;44.29
56912;BME280;42800;53.928;27.662;2023-07-16T09:45:44;99006.34;;;35.50;44.44
56912;BME280;42800;53.928;27.662;2023-07-16T09:48:10;99010.06;;;35.96;45.09
56912;BME280;42800;53.928;27.662;2023-07-16T09:50:36;99009.19;;;36.01;44.88
56912;BME280;42800;53.928;27.662;2023-07-16T09:53:05;99014.28;;;36.22;44.65
56912;BME280;42800;53.928;27.662;2023-07-16T09:55:33;99014.31;;;35.90;44.56
56912;BME280;42800;53.928;27.662;2023-07-16T09:58:02;99009.66;;;35.35;44.59
56912;BME280;42800;53.928;27.662;2023-07-16T10:00:29;99008.69;;;35.14;45.60
56912;BME280;42800;53.928;27.662;2023-07-16T10:02:57;99001.19;;;35.68;45.71
56912;BME280;42800;53.928;27.662;2023-07-16T10:05:25;98996.34;;;35.44;45.95
56912;BME280;42800;53.928;27.662;2023-07-16T10:07:52;99002.06;;;35.44;46.14
56912;BME280;42800;53.928;27.662;2023-07-16T10:10:19;99005.34;;;35.29;46.04
56912;BME280;42800;53.928;27.662;2023-07-16T10:12:55;98991.56;;;35.52;45.96
56912;BME280;42800;53.928;27.662;2023-07-16T10:15:25;98997.81;;;35.50;45.59
56912;BME280;42800;53.928;27.662;2023-07-16T10:17:51;98995.06;;;35.26;46.32
56912;BME280;42800;53.928;27.662;2023-07-16T10:20:28;98991.88;;;35.48;46.05
56912;BME280;42800;53.928;27.662;2023-07-16T10:22:54;98999.81;;;35.88;45.98
56912;BME280;42800;53.928;27.662;2023-07-16T10:25:25;98984.97;;;36.08;45.39
56912;BME280;42800;53.928;27.662;2023-07-16T10:27:52;98988.84;;;36.37;45.75
56912;BME280;42800;53.928;27.662;2023-07-16T10:30:19;98988.97;;;36.71;45.64
56912;BME280;42800;53.928;27.662;2023-07-16T10:32:45;98988.75;;;35.97;45.72
56912;BME280;42800;53.928;27.662;2023-07-16T10:35:11;98992.84;;;36.02;45.46
56912;BME280;42800;53.928;27.662;2023-07-16T10:37:39;98977.72;;;36.07;45.73
56912;BME280;42800;53.928;27.662;2023-07-16T10:40:10;98983.78;;;35.85;45.29
56912;BME280;42800;53.928;27.662;2023-07-16T10:42:36;98967.63;;;34.66;47.09
56912;BME280;42800;53.928;27.662;2023-07-16T10:45:04;98971.41;;;35.31;46.49
56912;BME280;42800;53.928;27.662;2023-07-16T10:47:31;98977.09;;;34.93;46.92
56912;BME280;42800;53.928;27.662;2023-07-16T10:49:58;98978.56;;;35.38;46.50
56912;BME280;42800;53.928;27.662;2023-07-16T10:52:25;98976.78;;;34.04;48.58
56912;BME280;42800;53.928;27.662;2023-07-16T10:54:52;98965.84;;;34.63;47.58
56912;BME280;42800;53.928;27.662;2023-07-16T10:57:20;98972.03;;;34.86;47.55
56912;BME280;42800;53.928;27.662;2023-07-16T10:59:46;98963.28;;;34.59;48.00
56912;BME280;42800;53.928;27.662;2023-07-16T11:02:15;98958.38;;;33.81;48.87
56912;BME280;42800;53.928;27.662;2023-07-16T11:04:42;98960.41;;;33.09;49.71
56912;BME280;42800;53.928;27.662;2023-07-16T11:07:09;98958.19;;;32.96;50.48
56912;BME280;42800;53.928;27.662;2023-07-16T11:09:40;98956.16;;;32.79;51.03
56912;BME280;42800;53.928;27.662;2023-07-16T11:12:10;98957.34;;;32.95;51.29
56912;BME280;42800;53.928;27.662;2023-07-16T11:14:37;98951.47;;;32.01;52.06
56912;BME280;42800;53.928;27.662;2023-07-16T11:17:07;98948.91;;;31.98;52.35
56912;BME280;42800;53.928;27.662;2023-07-16T11:19:34;98955.09;;;31.57;53.11
56912;BME280;42800;53.928;27.662;2023-07-16T11:22:00;98952.25;;;31.68;53.64
56912;BME280;42800;53.928;27.662;2023-07-16T11:24:26;98958.44;;;31.61;53.26
56912;BME280;42800;53.928;27.662;2023-07-16T11:26:54;98945.28;;;31.80;54.17
56912;BME280;42800;53.928;27.662;2023-07-16T11:29:23;98947.56;;;31.31;54.69
56912;BME280;42800;53.928;27.662;2023-07-16T11:31:49;98939.91;;;31.99;53.77
56912;BME280;42800;53.928;27.662;2023-07-16T11:34:16;98947.88;;;31.73;54.22
56912;BME280;42800;53.928;27.662;2023-07-16T11:36:42;98941.91;;;31.20;54.80
56912;BME280;42800;53.928;27.662;2023-07-16T11:39:10;98934.88;;;30.99;55.56
56912;BME280;42800;53.928;27.662;2023-07-16T11:41:36;98933.41;;;31.31;55.35
56912;BME280;42800;53.928;27.662;2023-07-16T11:44:03;98935.47;;;31.25;56.04
56912;BME280;42800;53.928;27.662;2023-07-16T11:46:32;98930.84;;;31.84;55.73
56912;BME280;42800;53.928;27.662;2023-07-16T11:48:58;98939.88;;;32.10;54.51
56912;BME280;42800;53.928;27.662;2023-07-16T11:51:24;98932.44;;;31.96;54.76
56912;BME280;42800;53.928;27.662;2023-07-16T11:53:50;98923.16;;;31.34;55.57
56912;BME280;42800;53.928;27.662;2023-07-16T11:56:16;98918.41;;;30.91;57.40
56912;BME280;42800;53.928;27.662;2023-07-16T11:58:42;98925.00;;;30.71;57.95
56912;BME280;42800;53.928;27.662;2023-07-16T12:01:08;98913.53;;;30.86;57.67
56912;BME280;42800;53.928;27.662;2023-07-16T12:03:34;98916.53;;;30.71;58.59
56912;BME280;42800;53.928;27.662;2023-07-16T12:06:00;98915.72;;;30.60;60.13
56912;BME280;42800;53.928;27.662;2023-07-16T12:08:26;98907.53;;;30.73;58.69
56912;BME280;42800;53.928;27.662;2023-07-16T12:10:53;98903.34;;;30.03;60.18
56912;BME280;42800;53.928;27.662;2023-07-16T12:13:19;98901.81;;;30.08;61.28
56912;BME280;42800;53.928;27.662;2023-07-16T12:15:45;98899.19;;;29.98;62.19
56912;BME280;42800;53.928;27.662;2023-07-16T12:18:11;98897.59;;;30.29;61.80
56912;BME280;42800;53.928;27.662;2023-07-16T12:20:37;98904.81;;;30.30;61.72
56912;BME280;42800;53.928;27.662;2023-07-16T12:23:03;98893.97;;;30.29;62.92
56912;BME280;42800;53.928;27.662;2023-07-16T12:25:29;98881.38;;;29.49;64.52
56912;BME280;42800;53.928;27.662;2023-07-16T12:27:55;98884.25;;;29.92;64.52
56912;BME280;42800;53.928;27.662;2023-07-16T12:30:23;98888.50;;;30.14;62.40
56912;BME280;42800;53.928;27.662;2023-07-16T12:32:49;98896.66;;;30.55;61.39
56912;BME280;42800;53.928;27.662;2023-07-16T12:35:15;98892.97;;;30.26;63.30
56912;BME280;42800;53.928;27.662;2023-07-16T12:37:42;98879.75;;;30.71;62.13
56912;BME280;42800;53.928;27.662;2023-07-16T12:40:08;98880.09;;;31.02;61.05
56912;BME280;42800;53.928;27.662;2023-07-16T12:42:34;98881.66;;;31.25;61.48
56912;BME280;42800;53.928;27.662;2023-07-16T12:45:00;98875.50;;;31.38;60.57